Time;durP1;ratioP1;P1;durP2;ratioP2;P2;SDS_P1;SDS_P2;PMS_P1;PMS_P2;Temp;Humidity;BMP_temperature;BMP_pressure;BME280_temperature;BME280_humidity;BME280_pressure;Samples;Min_cycle;Max_cycle;Signal;HPM_P1;HPM_P2
2021/12/10 00:00:15;;;;;;;13.07;10.17;;;;;;;0.96;100.00;95443.66;5039377;28;20940;-74
2021/12/10 00:02:46;;;;;;;13.67;8.20;;;;;;;0.69;100.00;95397.56;5039058;28;20468;-74
2021/12/10 00:05:18;;;;;;;10.07;7.93;;;;;;;1.02;100.00;95445.09;5055650;28;20539;-74
2021/12/10 00:07:46;;;;;;;13.23;7.87;;;;;;;0.79;100.00;95402.56;5073412;28;20444;-74
2021/12/10 00:10:17;;;;;;;16.27;8.40;;;;;;;0.85;100.00;95437.09;5065001;28;20535;-74
2021/12/10 00:12:50;;;;;;;11.33;8.33;;;;;;;0.64;100.00;95386.44;5088950;28;20484;-76
2021/12/10 00:15:23;;;;;;;11.57;9.07;;;;;;;0.42;100.00;95364.47;5072777;28;20448;-76
2021/12/10 00:17:52;;;;;;;13.07;8.10;;;;;;;0.92;100.00;95421.84;5072146;28;20494;-74
2021/12/10 00:20:23;;;;;;;13.37;8.77;;;;;;;0.35;100.00;95345.84;5073520;28;20505;-74
2021/12/10 00:22:58;;;;;;;10.60;8.43;;;;;;;0.91;100.00;95414.34;5055067;28;20492;-74
2021/12/10 00:25:35;;;;;;;13.43;8.17;;;;;;;0.67;100.00;95385.88;5088972;28;20472;-76
2021/12/10 00:28:14;;;;;;;15.67;9.90;;;;;;;0.91;100.00;95403.94;5055270;28;20954;-75
2021/12/10 00:30:58;;;;;;;15.03;8.67;;;;;;;0.97;100.00;95408.78;5071821;28;20425;-74
2021/12/10 00:33:27;;;;;;;16.17;9.13;;;;;;;0.72;100.00;95370.97;5071842;28;20436;-74
2021/12/10 00:35:55;;;;;;;8.27;7.30;;;;;;;0.90;100.00;95400.56;5055201;28;20472;-74
2021/12/10 00:38:22;;;;;;;9.47;7.60;;;;;;;0.94;100.00;95393.75;5072914;28;20428;-74
2021/12/10 00:40:50;;;;;;;12.00;8.23;;;;;;;0.92;100.00;95382.84;5088152;28;20864;-74
2021/12/10 00:43:17;;;;;;;12.23;8.50;;;;;;;0.96;100.00;95385.66;5054920;28;20440;-74
2021/12/10 00:45:47;;;;;;;16.57;9.23;;;;;;;0.83;100.00;95367.13;5071270;28;20585;-74
2021/12/10 00:48:14;;;;;;;11.97;9.10;;;;;;;0.85;100.00;95359.81;5088960;28;20529;-76
2021/12/10 00:50:46;;;;;;;11.13;7.90;;;;;;;0.78;100.00;95349.00;5055829;28;20535;-76
2021/12/10 00:53:14;;;;;;;11.87;7.93;;;;;;;1.02;100.00;95368.88;5055451;28;20464;-76
2021/12/10 00:55:42;;;;;;;18.37;8.90;;;;;;;0.92;100.00;95364.63;5088020;28;20428;-76
2021/12/10 00:58:09;;;;;;;12.20;9.73;;;;;;;0.90;100.00;95369.34;5071186;28;21208;-74
2021/12/10 01:00:50;;;;;;;13.87;8.67;;;;;;;0.83;100.00;95332.53;5088139;28;20439;-74
2021/12/10 01:03:30;;;;;;;12.23;8.93;;;;;;;1.01;100.00;95342.09;5055191;28;20460;-76
2021/12/10 01:06:02;;;;;;;10.43;8.63;;;;;;;0.66;100.00;95295.91;5073645;28;20466;-76
2021/12/10 01:08:31;;;;;;;11.57;8.80;;;;;;;1.07;100.00;95359.16;5074040;28;20416;-74
2021/12/10 01:11:04;;;;;;;18.07;9.80;;;;;;;1.00;100.00;95331.97;5072630;28;20447;-74
2021/12/10 01:13:34;;;;;;;14.73;9.20;;;;;;;0.68;100.00;95304.22;5091231;28;20437;-76
2021/12/10 01:23:41;;;;;;;11.50;8.40;;;;;;;1.10;100.00;95342.97;5074075;28;20452;-76
2021/12/10 01:25:07;;;;;;;17.20;8.13;;;;;;;0.88;100.00;95293.41;5091025;28;20440;-76
2021/12/10 01:27:38;;;;;;;12.57;11.20;;;;;;;1.09;100.00;95319.81;5073836;28;21063;-74
2021/12/10 01:30:20;;;;;;;12.77;9.37;;;;;;;1.04;100.00;95310.28;5070816;28;20433;-76
2021/12/10 01:32:53;;;;;;;13.23;7.87;;;;;;;0.83;100.00;95267.50;5070498;28;20881;-76
2021/12/10 01:35:24;;;;;;;10.63;8.90;;;;;;;1.00;100.00;95314.53;5086829;28;20531;-77
2021/12/10 01:37:54;;;;;;;12.97;10.13;;;;;;;0.79;100.00;95282.91;5070531;28;20460;-76
2021/12/10 01:40:26;;;;;;;11.87;9.07;;;;;;;1.02;100.00;95299.38;5087412;28;21247;-76
2021/12/10 01:43:04;;;;;;;16.67;9.50;;;;;;;1.12;100.00;95301.03;5070922;28;20496;-76
2021/12/10 01:45:34;;;;;;;10.47;9.10;;;;;;;0.82;100.00;95269.34;5070974;28;20965;-76
2021/12/10 01:48:10;;;;;;;14.53;9.10;;;;;;;1.04;100.00;95291.28;5070674;28;20472;-74
2021/12/10 01:50:37;;;;;;;12.30;9.57;;;;;;;0.52;100.00;95223.09;5070304;28;20513;-74
2021/12/10 01:53:11;;;;;;;12.10;9.40;;;;;;;1.11;100.00;95279.44;5070282;28;20564;-74
2021/12/10 01:55:42;;;;;;;13.57;8.80;;;;;;;0.79;100.00;95256.13;5071224;28;20512;-74
2021/12/10 01:58:11;;;;;;;13.40;9.20;;;;;;;1.02;100.00;95281.16;5069899;28;20451;-74
2021/12/10 02:00:42;;;;;;;13.37;9.93;;;;;;;1.08;100.00;95274.81;5070216;28;20436;-74
2021/12/10 02:03:09;;;;;;;15.70;9.80;;;;;;;0.89;100.00;95250.72;5071174;28;20514;-74
2021/12/10 02:05:36;;;;;;;9.83;8.30;;;;;;;1.04;100.00;95260.06;5086913;28;20432;-76
2021/12/10 02:08:03;;;;;;;15.20;9.23;;;;;;;0.99;100.00;95245.31;5069792;28;20435;-75
2021/12/10 02:10:30;;;;;;;15.50;10.37;;;;;;;1.09;100.00;95260.75;5053185;28;20997;-76
2021/12/10 02:12:58;;;;;;;13.50;8.63;;;;;;;0.99;100.00;95228.94;5070016;28;20460;-74
2021/12/10 02:15:28;;;;;;;11.90;8.80;;;;;;;1.18;100.00;95248.56;5070016;28;20877;-76
2021/12/10 02:17:57;;;;;;;12.20;10.60;;;;;;;1.14;100.00;95245.00;5069857;28;20455;-76
2021/12/10 02:20:35;;;;;;;15.43;11.23;;;;;;;0.93;100.00;95194.44;5087031;28;20460;-76
2021/12/10 02:23:05;;;;;;;11.80;9.77;;;;;;;1.10;100.00;95238.84;5071129;28;20487;-76
2021/12/10 02:25:36;;;;;;;15.93;9.57;;;;;;;0.86;100.00;95213.06;5069768;28;21020;-76
2021/12/10 02:28:09;;;;;;;12.23;8.80;;;;;;;0.93;100.00;95228.25;5070034;28;20432;-74
2021/12/10 02:30:36;;;;;;;10.43;8.80;;;;;;;0.84;100.00;95211.81;5069983;28;20832;-74
2021/12/10 02:33:03;;;;;;;15.80;9.97;;;;;;;0.70;100.00;95188.44;5069812;28;20567;-74
2021/12/10 02:35:30;;;;;;;12.43;8.53;;;;;;;0.81;100.00;95184.56;5069636;28;20486;-75
2021/12/10 02:37:57;;;;;;;12.77;9.63;;;;;;;1.06;100.00;95196.25;5053352;28;20857;-74
2021/12/10 02:40:26;;;;;;;10.47;8.57;;;;;;;0.81;100.00;95161.16;5069568;28;20527;-74
2021/12/10 02:43:38;;;;;;;16.57;8.60;;;;;;;1.05;100.00;95199.91;5086360;28;20562;-74
2021/12/10 02:46:05;;;;;;;14.00;8.83;;;;;;;0.51;100.00;95105.31;5067138;28;21033;-76
2021/12/10 02:48:32;;;;;;;10.10;7.63;;;;;;;1.12;100.00;95189.88;5074336;28;20807;-76
2021/12/10 02:51:02;;;;;;;10.47;7.50;;;;;;;1.23;100.00;95192.25;5074611;28;20437;-75
2021/12/10 02:53:34;;;;;;;14.40;7.40;;;;;;;1.04;100.00;95174.19;5074235;28;20510;-76
2021/12/10 02:56:04;;;;;;;11.43;7.73;;;;;;;1.10;100.00;95175.63;5074185;28;20911;-76
2021/12/10 02:58:31;;;;;;;12.80;8.93;;;;;;;1.22;100.00;95191.50;5073949;28;20935;-74
2021/12/10 03:01:07;;;;;;;10.30;8.30;;;;;;;1.17;100.00;95181.19;5073637;28;20474;-76
2021/12/10 03:03:37;;;;;;;10.43;9.03;;;;;;;1.16;100.00;95179.66;5074229;28;20483;-76
2021/12/10 03:06:10;;;;;;;12.53;7.53;;;;;;;1.18;100.00;95178.28;5090673;28;20432;-76
2021/12/10 03:08:39;;;;;;;13.27;8.80;;;;;;;1.12;100.00;95176.88;5074169;28;20464;-76
2021/12/10 03:11:08;;;;;;;9.87;7.57;;;;;;;1.18;100.00;95167.88;5074246;28;20432;-76
2021/12/10 03:13:36;;;;;;;12.70;8.23;;;;;;;1.14;100.00;95169.53;5074414;28;20435;-76
2021/12/10 03:16:03;;;;;;;9.47;7.60;;;;;;;0.92;100.00;95148.69;5091160;28;20436;-74
2021/12/10 03:18:30;;;;;;;9.67;8.33;;;;;;;1.06;100.00;95156.44;5073588;28;20440;-74
2021/12/10 03:20:57;;;;;;;8.23;7.43;;;;;;;0.83;100.00;95146.03;5073543;28;20428;-76
2021/12/10 03:23:24;;;;;;;11.50;8.40;;;;;;;0.99;100.00;95169.09;5075022;28;20491;-76
2021/12/10 03:25:50;;;;;;;10.07;6.27;;;;;;;0.89;100.00;95128.47;5090327;28;20440;-76
2021/12/10 03:28:17;;;;;;;13.30;7.43;;;;;;;0.95;100.00;95134.34;5073162;28;20424;-76
2021/12/10 03:30:50;;;;;;;8.23;7.43;;;;;;;1.01;100.00;95148.75;5075316;28;20424;-74
2021/12/10 03:33:17;;;;;;;8.63;7.53;;;;;;;0.87;100.00;95138.38;5090522;28;20555;-76
2021/12/10 03:35:46;;;;;;;10.90;8.40;;;;;;;1.10;100.00;95147.00;5057495;28;20531;-76
2021/12/10 03:38:18;;;;;;;15.43;7.27;;;;;;;1.13;100.00;95151.63;5057653;28;20498;-76
2021/12/10 03:40:47;;;;;;;11.20;9.80;;;;;;;1.08;100.00;95146.53;5074389;28;20955;-76
2021/12/10 03:43:15;;;;;;;16.17;9.40;;;;;;;1.12;100.00;95137.06;5056120;28;20559;-74
2021/12/10 03:45:48;;;;;;;14.17;8.60;;;;;;;1.15;100.00;95133.84;5090677;28;20471;-76
2021/12/10 03:48:19;;;;;;;9.83;8.03;;;;;;;1.10;100.00;95128.78;5072927;28;20491;-76
2021/12/10 03:50:48;;;;;;;10.83;8.50;;;;;;;1.16;100.00;95120.56;5089348;28;20981;-74
2021/12/10 03:53:16;;;;;;;13.60;8.53;;;;;;;1.17;100.00;95119.47;5088843;28;21025;-75
2021/12/10 03:55:44;;;;;;;10.90;8.50;;;;;;;1.15;100.00;95110.44;5072276;28;20869;-74
2021/12/10 03:58:11;;;;;;;8.80;6.83;;;;;;;1.23;100.00;95111.56;5073046;28;20460;-74
2021/12/10 04:00:42;;;;;;;11.00;7.13;;;;;;;1.13;100.00;95107.38;5072077;28;20444;-74
2021/12/10 04:03:10;;;;;;;10.03;7.10;;;;;;;1.09;100.00;95104.59;5072322;28;20456;-75
2021/12/10 04:05:39;;;;;;;9.03;7.93;;;;;;;1.03;100.00;95112.81;5056605;28;20881;-76
2021/12/10 04:08:06;;;;;;;8.20;6.63;;;;;;;0.96;100.00;95076.03;5072796;28;20472;-74
2021/12/10 04:10:34;;;;;;;11.30;8.23;;;;;;;0.83;100.00;95070.59;5088870;28;20947;-74
2021/12/10 04:13:01;;;;;;;9.93;8.70;;;;;;;0.96;100.00;95104.66;5057295;28;20459;-77
2021/12/10 04:15:28;;;;;;;10.27;6.97;;;;;;;0.67;100.00;95069.38;5072375;28;20440;-76
2021/12/10 04:17:57;;;;;;;13.30;8.20;;;;;;;1.12;100.00;95100.63;5073321;28;20996;-76
2021/12/10 04:20:29;;;;;;;11.40;7.50;;;;;;;1.19;100.00;95101.72;5088999;28;20461;-76
2021/12/10 04:22:58;;;;;;;11.30;7.07;;;;;;;1.17;100.00;95082.28;5090678;28;20541;-74
2021/12/10 04:25:25;;;;;;;10.47;7.23;;;;;;;1.18;100.00;95102.03;5091002;28;20436;-76
2021/12/10 04:27:56;;;;;;;9.87;7.87;;;;;;;1.11;100.00;95099.09;5090681;28;20475;-76
2021/12/10 04:30:25;;;;;;;17.10;11.20;;;;;;;1.01;100.00;95091.50;5089900;28;20832;-76
2021/12/10 04:32:52;;;;;;;15.20;10.07;;;;;;;0.95;100.00;95084.91;5071756;28;20452;-74
2021/12/10 04:35:19;;;;;;;14.13;11.40;;;;;;;1.16;100.00;95088.56;5071592;28;20483;-74
2021/12/10 04:37:49;;;;;;;10.53;9.43;;;;;;;0.99;100.00;95071.00;5072979;28;20531;-74
2021/12/10 04:40:18;;;;;;;9.30;8.40;;;;;;;0.89;100.00;95060.81;5088612;28;20491;-74
2021/12/10 04:42:45;;;;;;;10.93;9.27;;;;;;;0.98;100.00;95071.28;5072624;28;20893;-74
2021/12/10 04:45:14;;;;;;;11.80;8.27;;;;;;;0.92;100.00;95065.44;5071638;28;20467;-74
2021/12/10 04:47:41;;;;;;;11.70;8.67;;;;;;;0.88;100.00;95067.09;5054833;28;20440;-74
2021/12/10 04:50:09;;;;;;;8.37;7.23;;;;;;;0.91;100.00;95063.13;5089829;28;20452;-74
2021/12/10 04:52:36;;;;;;;11.50;8.17;;;;;;;0.75;100.00;95047.88;5054959;28;20456;-76
2021/12/10 04:55:08;;;;;;;8.23;7.40;;;;;;;0.81;100.00;95051.13;5072542;28;20467;-76
2021/12/10 04:57:35;;;;;;;10.03;7.77;;;;;;;0.53;100.00;95009.59;5072323;28;20425;-74
2021/12/10 05:00:04;;;;;;;10.83;9.17;;;;;;;0.63;100.00;95018.25;5054777;28;20436;-74
2021/12/10 05:02:33;;;;;;;10.50;8.20;;;;;;;0.61;100.00;95028.19;5087718;28;20464;-74
2021/12/10 05:05:03;;;;;;;21.83;9.17;;;;;;;0.72;100.00;95045.09;5055115;28;20433;-76
2021/12/10 05:07:35;;;;;;;15.50;10.20;;;;;;;0.65;100.00;95029.13;5071115;28;20432;-77
2021/12/10 05:10:07;;;;;;;20.77;9.50;;;;;;;0.66;100.00;95028.81;5087808;28;20501;-77
2021/12/10 05:12:33;;;;;;;22.20;7.73;;;;;;;0.53;100.00;95017.41;5072347;28;20450;-74
2021/12/10 05:15:02;;;;;;;18.83;10.13;;;;;;;0.54;100.00;95016.38;5073700;28;20458;-77
2021/12/10 05:17:32;;;;;;;14.23;9.40;;;;;;;0.44;100.00;95002.81;5064753;28;20439;-76
2021/12/10 05:20:00;;;;;;;13.53;8.90;;;;;;;0.72;100.00;95045.88;5097148;28;20452;-76
2021/12/10 05:22:28;;;;;;;16.60;11.20;;;;;;;0.68;100.00;95036.34;5081281;28;20529;-76
2021/12/10 05:24:55;;;;;;;13.67;9.40;;;;;;;0.73;100.00;95052.59;5079632;28;20435;-74
2021/12/10 05:27:21;;;;;;;17.27;8.67;;;;;;;0.57;100.00;95026.19;5093700;28;20433;-75
2021/12/10 05:29:48;;;;;;;17.17;10.73;;;;;;;0.52;100.00;95022.91;5079841;28;20482;-75
2021/12/10 05:32:17;;;;;;;14.93;10.47;;;;;;;0.66;100.00;95043.66;5072336;28;20448;-68
2021/12/10 05:34:46;;;;;;;30.07;27.00;;;;;;;0.79;100.00;95046.22;5071430;28;20797;-67
2021/12/10 05:37:13;;;;;;;15.80;11.93;;;;;;;0.57;100.00;95015.78;5070065;28;20450;-68
2021/12/10 05:39:40;;;;;;;15.80;9.73;;;;;;;0.58;100.00;95014.72;5070144;28;20437;-67
2021/12/10 05:42:07;;;;;;;15.97;10.90;;;;;;;0.76;100.00;95035.63;5071359;28;20478;-67
2021/12/10 05:44:34;;;;;;;16.83;10.30;;;;;;;0.86;100.00;95040.59;5070108;28;20436;-68
2021/12/10 05:47:01;;;;;;;12.37;10.70;;;;;;;0.75;100.00;95021.09;5086968;28;20871;-68
2021/12/10 05:49:28;;;;;;;18.80;11.87;;;;;;;0.77;100.00;95024.16;5086645;28;20451;-68
2021/12/10 05:51:55;;;;;;;13.17;11.77;;;;;;;0.77;100.00;95030.13;5071061;28;20887;-68
2021/12/10 05:54:22;;;;;;;16.13;11.00;;;;;;;0.64;100.00;95002.34;5069935;28;20967;-68
2021/12/10 05:56:49;;;;;;;27.43;11.80;;;;;;;0.66;100.00;94994.25;5069657;28;20880;-68
2021/12/10 05:59:16;;;;;;;17.33;11.70;;;;;;;0.81;100.00;95022.53;5071698;28;20534;-68
2021/12/10 06:01:44;;;;;;;15.80;11.20;;;;;;;0.56;100.00;94984.88;5069948;28;20873;-68
2021/12/10 06:04:11;;;;;;;14.17;11.10;;;;;;;0.72;100.00;95006.09;5053078;28;20464;-68
2021/12/10 06:06:37;;;;;;;15.07;11.27;;;;;;;0.36;100.00;94969.72;5086585;28;20510;-68
2021/12/10 06:09:08;;;;;;;12.73;10.60;;;;;;;0.78;100.00;95010.84;5053058;28;20472;-67
2021/12/10 06:11:36;;;;;;;19.00;13.40;;;;;;;0.81;100.00;95006.91;5071063;28;20797;-67
2021/12/10 06:14:04;;;;;;;20.60;11.50;;;;;;;0.85;100.00;95003.41;5069723;28;20467;-68
2021/12/10 06:16:31;;;;;;;15.47;12.00;;;;;;;0.77;100.00;95000.75;5069777;28;20456;-67
2021/12/10 06:18:58;;;;;;;19.97;13.07;;;;;;;0.76;100.00;94992.19;5069880;28;20444;-67
2021/12/10 06:21:24;;;;;;;20.33;13.13;;;;;;;0.62;100.00;94975.09;5070283;28;20991;-67
2021/12/10 06:23:51;;;;;;;15.57;12.30;;;;;;;0.73;100.00;94979.78;5093123;28;20542;-67
2021/12/10 06:26:18;;;;;;;14.20;10.63;;;;;;;0.71;100.00;94986.34;5076279;28;20448;-67
2021/12/10 06:28:45;;;;;;;14.03;10.70;;;;;;;0.61;100.00;94966.53;5077662;28;20485;-67
2021/12/10 06:31:15;;;;;;;17.23;12.77;;;;;;;0.91;100.00;95004.06;5076190;28;20428;-66
2021/12/10 06:33:42;;;;;;;24.40;12.70;;;;;;;0.86;100.00;94994.53;5076048;28;20428;-67
2021/12/10 06:36:09;;;;;;;23.93;13.93;;;;;;;1.00;100.00;94998.91;5076296;28;20428;-67
2021/12/10 06:38:35;;;;;;;19.70;12.70;;;;;;;0.78;100.00;94974.44;5076283;28;20460;-67
2021/12/10 06:41:04;;;;;;;14.50;10.90;;;;;;;0.90;100.00;94994.72;5076341;28;20995;-67
2021/12/10 06:43:31;;;;;;;15.87;12.10;;;;;;;0.76;100.00;94986.22;5076248;28;20463;-68
2021/12/10 06:45:59;;;;;;;27.70;13.13;;;;;;;0.80;100.00;94989.75;5077433;28;20432;-68
2021/12/10 06:48:26;;;;;;;18.77;13.53;;;;;;;0.58;100.00;94956.75;5093136;28;20440;-68
2021/12/10 06:50:56;;;;;;;20.83;13.73;;;;;;;0.79;100.00;94972.63;5059414;28;20498;-68
2021/12/10 06:53:25;;;;;;;23.80;13.83;;;;;;;0.68;100.00;94979.16;5077372;28;20777;-68
2021/12/10 06:55:52;;;;;;;23.80;16.63;;;;;;;0.73;100.00;94976.41;5059902;28;20440;-68
2021/12/10 06:58:20;;;;;;;23.53;15.53;;;;;;;0.71;100.00;94968.91;5059449;28;20486;-68
2021/12/10 07:00:52;;;;;;;25.30;16.23;;;;;;;0.73;100.00;94966.00;5077400;28;20439;-68
2021/12/10 07:03:22;;;;;;;27.37;16.93;;;;;;;0.66;100.00;94976.81;5075970;28;20903;-67
2021/12/10 07:05:51;;;;;;;26.70;17.10;;;;;;;0.66;100.00;94965.66;5076044;28;20489;-67
2021/12/10 07:08:19;;;;;;;31.57;17.43;;;;;;;0.70;100.00;94969.97;5092904;28;20953;-67
2021/12/10 07:10:46;;;;;;;26.77;16.90;;;;;;;0.69;100.00;94975.47;5077461;28;20884;-74
2021/12/10 07:13:15;;;;;;;24.60;16.93;;;;;;;0.68;100.00;94968.75;5042797;28;20548;-74
2021/12/10 07:15:44;;;;;;;25.53;17.70;;;;;;;0.60;100.00;94957.22;5077736;28;20460;-74
2021/12/10 07:18:12;;;;;;;37.63;17.63;;;;;;;0.50;100.00;94955.59;5059532;28;20527;-75
2021/12/10 07:20:41;;;;;;;29.33;18.80;;;;;;;0.53;100.00;94960.22;5060200;28;20420;-74
2021/12/10 07:23:08;;;;;;;31.43;20.80;;;;;;;0.23;100.00;94899.31;5043246;28;20506;-75
2021/12/10 07:25:36;;;;;;;30.30;18.60;;;;;;;0.56;100.00;94951.84;5059795;28;20436;-76
2021/12/10 07:28:03;;;;;;;29.87;18.37;;;;;;;0.01;100.00;94885.56;5076249;28;20462;-75
2021/12/10 07:30:30;;;;;;;32.97;20.87;;;;;;;0.65;100.00;94943.31;5060326;28;20531;-75
2021/12/10 07:33:05;;;;;;;29.00;17.87;;;;;;;0.78;100.00;94929.47;5043022;28;20448;-75
2021/12/10 07:35:32;;;;;;;34.33;18.53;;;;;;;0.37;100.00;94877.69;5056297;28;20531;-75
2021/12/10 07:37:59;;;;;;;43.50;20.83;;;;;;;0.54;100.00;94901.97;5039979;28;20787;-76
2021/12/10 07:40:28;;;;;;;34.33;20.97;;;;;;;0.51;100.00;94894.75;5057987;28;20440;-78
2021/12/10 07:42:56;;;;;;;32.70;20.70;;;;;;;0.79;100.00;94910.19;5076964;28;20461;-77
2021/12/10 07:45:25;;;;;;;26.03;17.37;;;;;;;0.60;100.00;94881.81;5074796;28;20847;-77
2021/12/10 07:47:55;;;;;;;32.57;20.30;;;;;;;0.50;100.00;94887.25;5057074;28;20451;-77
2021/12/10 07:50:33;;;;;;;29.20;18.03;;;;;;;0.65;100.00;94897.28;5075993;28;20531;-78
2021/12/10 07:53:00;;;;;;;27.70;18.00;;;;;;;0.52;100.00;94872.88;5056634;28;20456;-78
2021/12/10 07:55:30;;;;;;;26.57;18.67;;;;;;;0.60;100.00;94876.59;5042292;28;20493;-79
2021/12/10 07:57:57;;;;;;;35.03;18.20;;;;;;;0.71;100.00;94892.72;5076709;28;20549;-78
2021/12/10 08:00:26;;;;;;;31.17;17.77;;;;;;;0.56;100.00;94886.06;5042272;28;20428;-78
2021/12/10 08:02:53;;;;;;;25.60;15.70;;;;;;;0.51;100.00;94868.75;5057006;28;20464;-77
2021/12/10 08:05:24;;;;;;;25.97;16.83;;;;;;;0.63;100.00;94872.63;5058943;28;20471;-78
2021/12/10 08:07:52;;;;;;;22.23;15.43;;;;;;;0.56;100.00;94865.28;5058036;28;20444;-78
2021/12/10 08:10:19;;;;;;;26.03;16.10;;;;;;;0.63;100.00;94867.44;5074520;28;20444;-75
2021/12/10 08:12:46;;;;;;;29.07;16.57;;;;;;;0.61;100.00;94872.94;5055968;28;20456;-75
2021/12/10 08:15:14;;;;;;;28.80;18.90;;;;;;;0.21;100.00;94818.28;5056198;28;20899;-75
2021/12/10 08:17:42;;;;;;;25.50;18.80;;;;;;;0.14;100.00;94802.38;5055897;28;20535;-74
2021/12/10 08:20:12;;;;;;;30.47;16.13;;;;;;;0.78;100.00;94867.03;5056178;28;20995;-77
2021/12/10 08:22:40;;;;;;;28.90;16.00;;;;;;;0.49;100.00;94833.72;5056473;28;20864;-77
2021/12/10 08:25:07;;;;;;;24.60;14.93;;;;;;;0.35;100.00;94814.84;5074545;28;20546;-77
2021/12/10 08:27:39;;;;;;;25.43;14.73;;;;;;;0.71;100.00;94862.28;5074674;28;20742;-77
2021/12/10 08:30:08;;;;;;;28.60;15.27;;;;;;;0.69;100.00;94856.63;5055961;28;20486;-77
2021/12/10 08:32:35;;;;;;;24.33;15.20;;;;;;;0.78;100.00;94856.63;5056430;28;20461;-77
2021/12/10 08:35:05;;;;;;;23.20;14.67;;;;;;;0.88;100.00;94858.97;5039536;28;20502;-77
2021/12/10 08:37:32;;;;;;;20.00;14.73;;;;;;;0.52;100.00;94817.53;5056043;28;20436;-77
2021/12/10 08:40:04;;;;;;;20.50;13.70;;;;;;;0.82;100.00;94847.19;5056080;28;20432;-75
2021/12/10 08:42:31;;;;;;;16.70;11.80;;;;;;;0.92;100.00;94851.34;5038753;28;20464;-74
2021/12/10 08:44:58;;;;;;;19.30;13.13;;;;;;;0.66;100.00;94823.38;5054973;28;21014;-75
2021/12/10 08:47:24;;;;;;;20.67;12.30;;;;;;;0.79;100.00;94837.38;5073107;28;20460;-74
2021/12/10 08:49:52;;;;;;;19.77;13.37;;;;;;;0.56;100.00;94800.28;5073751;28;20442;-77
2021/12/10 08:52:19;;;;;;;18.27;12.60;;;;;;;0.77;100.00;94813.50;5073283;28;20526;-77
2021/12/10 08:54:46;;;;;;;22.50;11.97;;;;;;;0.86;100.00;94835.88;5056961;28;20948;-79
2021/12/10 08:57:14;;;;;;;22.83;13.20;;;;;;;0.91;100.00;94842.00;5057898;28;20440;-77
2021/12/10 08:59:42;;;;;;;19.70;13.70;;;;;;;0.59;100.00;94792.63;5075058;28;20436;-77
2021/12/10 09:02:16;;;;;;;20.70;14.00;;;;;;;0.63;100.00;94792.78;5078008;28;20528;-77
2021/12/10 09:04:46;;;;;;;26.23;13.83;;;;;;;0.92;100.00;94849.50;5056543;28;20475;-74
2021/12/10 09:07:16;;;;;;;17.00;12.37;;;;;;;0.75;100.00;94813.03;5055044;28;20486;-74
2021/12/10 09:09:45;;;;;;;19.50;12.20;;;;;;;0.91;100.00;94842.75;5073064;28;21148;-74
2021/12/10 09:12:17;;;;;;;14.20;9.97;;;;;;;0.79;100.00;94832.16;5054878;28;20460;-74
2021/12/10 09:14:48;;;;;;;16.10;10.70;;;;;;;0.90;100.00;94843.84;5071778;28;20435;-74
2021/12/10 09:17:23;;;;;;;19.00;11.60;;;;;;;0.87;100.00;94847.81;5056326;28;20458;-77
2021/12/10 09:19:57;;;;;;;11.80;8.77;;;;;;;0.69;100.00;94809.81;5072112;28;20519;-74
2021/12/10 09:22:25;;;;;;;13.17;8.70;;;;;;;0.74;100.00;94816.69;5054983;28;20850;-74
2021/12/10 09:24:54;;;;;;;13.97;7.97;;;;;;;0.45;100.00;94786.78;5054885;28;20539;-78
2021/12/10 09:27:22;;;;;;;15.30;9.10;;;;;;;0.80;100.00;94838.91;5057535;28;20459;-78
2021/12/10 09:29:54;;;;;;;10.67;7.57;;;;;;;0.53;100.00;94801.63;5057855;28;20440;-78
2021/12/10 09:32:24;;;;;;;16.30;12.10;;;;;;;0.74;100.00;94845.31;5057994;28;20553;-78
2021/12/10 09:34:55;;;;;;;15.83;10.60;;;;;;;0.71;100.00;94835.50;5070849;28;20440;-77
2021/12/10 09:37:22;;;;;;;13.53;9.90;;;;;;;0.67;100.00;94804.16;5054146;28;20450;-77
2021/12/10 09:39:50;;;;;;;16.30;12.03;;;;;;;0.56;100.00;94793.25;5055504;28;20445;-77
2021/12/10 09:42:20;;;;;;;21.43;10.37;;;;;;;0.55;100.00;94789.13;5055748;28;20457;-74
2021/12/10 09:44:47;;;;;;;12.90;10.20;;;;;;;0.77;100.00;94803.09;5054253;28;20460;-74
2021/12/10 09:47:15;;;;;;;11.97;9.73;;;;;;;0.76;100.00;94804.16;5071422;28;20437;-77
2021/12/10 09:49:48;;;;;;;16.77;11.97;;;;;;;0.86;100.00;94801.28;5073512;28;20437;-77
2021/12/10 09:52:19;;;;;;;15.13;11.17;;;;;;;0.94;100.00;94810.97;5055113;28;20513;-74
2021/12/10 09:54:47;;;;;;;17.17;11.33;;;;;;;0.94;100.00;94787.56;5037412;28;20858;-74
2021/12/10 09:57:22;;;;;;;14.43;9.30;;;;;;;0.99;100.00;94792.59;5069894;28;20486;-74
2021/12/10 10:00:02;;;;;;;16.37;10.63;;;;;;;0.83;100.00;94771.47;5054222;28;20440;-77
2021/12/10 10:02:41;;;;;;;15.20;9.67;;;;;;;0.97;100.00;94792.16;5055873;28;21018;-77
2021/12/10 10:05:09;;;;;;;15.67;9.73;;;;;;;1.06;100.00;94789.53;5053993;28;20464;-76
2021/12/10 10:07:38;;;;;;;11.90;8.70;;;;;;;1.08;100.00;94793.41;5072529;28;20846;-78
2021/12/10 10:10:12;;;;;;;12.13;8.97;;;;;;;0.74;100.00;94736.09;5074250;28;20444;-78
2021/12/10 10:12:42;;;;;;;11.70;9.87;;;;;;;1.15;100.00;94775.50;5038938;28;20460;-78
2021/12/10 10:15:13;;;;;;;14.50;8.50;;;;;;;1.01;100.00;94787.88;5070408;28;20420;-74
2021/12/10 10:17:53;;;;;;;13.00;9.73;;;;;;;1.07;100.00;94785.88;5038480;28;20427;-74
2021/12/10 10:20:21;;;;;;;12.37;9.00;;;;;;;1.08;100.00;94769.97;5070178;28;20443;-74
2021/12/10 10:22:48;;;;;;;13.57;9.40;;;;;;;0.91;100.00;94733.50;5053972;28;20887;-77
2021/12/10 10:25:18;;;;;;;13.80;7.43;;;;;;;0.85;100.00;94734.75;5053999;28;20503;-77
2021/12/10 10:27:46;;;;;;;13.97;8.10;;;;;;;0.85;100.00;94730.28;5054121;28;20472;-77
2021/12/10 10:30:27;;;;;;;7.17;6.43;;;;;;;1.09;100.00;94761.09;5053872;28;20437;-77
2021/12/10 10:32:58;;;;;;;10.10;6.70;;;;;;;1.11;100.00;94755.59;5037911;28;20979;-77
2021/12/10 10:35:28;;;;;;;10.07;5.80;;;;;;;1.10;100.00;94754.06;5055832;28;20527;-78
2021/12/10 10:37:58;;;;;;;7.10;5.30;;;;;;;0.94;100.00;94719.91;5053923;28;20932;-74
2021/12/10 10:40:29;;;;;;;7.87;5.77;;;;;;;1.20;100.00;94751.13;5038822;28;20985;-77
2021/12/10 10:42:57;;;;;;;6.80;6.10;;;;;;;0.89;100.00;94702.59;5054728;28;20532;-77
2021/12/10 10:45:28;;;;;;;9.00;6.30;;;;;;;0.92;100.00;94724.63;5038055;28;20491;-77
2021/12/10 10:47:56;;;;;;;9.00;6.00;;;;;;;0.57;100.00;94648.41;5055045;28;20468;-77
2021/12/10 10:50:39;;;;;;;11.33;7.07;;;;;;;0.93;100.00;94709.78;5038724;28;20428;-74
2021/12/10 10:53:12;;;;;;;12.70;7.97;;;;;;;1.00;100.00;94710.13;5053289;28;20483;-74
2021/12/10 10:55:53;;;;;;;11.40;10.30;;;;;;;1.28;100.00;94734.78;5071196;28;20412;-74
2021/12/10 10:58:22;;;;;;;15.63;10.77;;;;;;;1.09;100.00;94735.09;5054567;28;20460;-77
2021/12/10 11:01:13;;;;;;;13.30;9.93;;;;;;;0.96;100.00;94722.97;5057230;28;20492;-76
2021/12/10 11:04:18;;;;;;;12.10;7.60;;;;;;;0.98;100.00;94738.28;5040822;28;20480;-77
2021/12/10 11:06:49;;;;;;;10.00;7.50;;;;;;;0.77;100.00;94720.63;5054704;28;20774;-76
2021/12/10 11:09:20;;;;;;;10.33;6.90;;;;;;;0.82;100.00;94722.34;5058077;28;20505;-74
2021/12/10 11:11:52;;;;;;;7.30;5.93;;;;;;;0.54;100.00;94691.38;5073725;28;20907;-74
2021/12/10 11:14:23;;;;;;;11.27;5.70;;;;;;;0.65;100.00;94691.09;5075202;28;20772;-74
2021/12/10 11:16:55;;;;;;;8.07;5.73;;;;;;;0.57;100.00;94669.97;5090494;28;20852;-74
2021/12/10 11:20:01;;;;;;;8.13;5.37;;;;;;;1.01;100.00;94703.84;5074086;28;20456;-77
2021/12/10 11:22:28;;;;;;;5.27;4.77;;;;;;;1.19;100.00;94715.78;5073949;28;20492;-77
2021/12/10 11:25:03;;;;;;;6.20;4.20;;;;;;;0.85;100.00;94657.47;5075314;28;20878;-74
2021/12/10 11:27:38;;;;;;;6.73;4.30;;;;;;;0.97;100.00;94677.69;5056938;28;20489;-74
2021/12/10 11:30:15;;;;;;;8.13;5.37;;;;;;;1.00;100.00;94679.66;5090759;28;20424;-75
2021/12/10 11:33:01;;;;;;;9.33;6.77;;;;;;;1.10;100.00;94699.41;5074701;28;20505;-74
2021/12/10 11:35:32;;;;;;;10.73;6.43;;;;;;;1.10;100.00;94687.16;5075038;28;20440;-74
2021/12/10 11:38:08;;;;;;;15.60;7.83;;;;;;;0.91;100.00;94665.88;5074243;28;20440;-77
2021/12/10 11:40:51;;;;;;;8.90;6.60;;;;;;;0.89;100.00;94649.81;5089996;28;20427;-74